Terminal Aerodrome Forecast
Issued by NWS

Home | Current Version | Previous Version | Text Only | Print | Product List | Glossary On
Versions: 1 2 3 4 5 6 7 8 9 10 11 12 13 14 15 16 17 18 19
000
FTUS43 KGRB 191100
TAFATW
TAF
KATW 191133Z 1912/2012 18006KT 2SM BR OVC003
      TEMPO 1912/1914 1SM BR OVC002
     FM191400 19009KT 5SM BR SCT003 BKN008
     FM191600 20015G25KT P6SM SCT050 BKN250
     FM200000 19009KT P6SM BKN100 BKN250
     FM200600 21008KT 5SM BR SCT045 BKN100
      TEMPO 2009/2012 3SM -TSRA OVC035CB=

USA.gov is the U.S. government's official web portal to all federal, state and local government web resources and services.